Time;durP1;ratioP1;P1;durP2;ratioP2;P2;SDS_P1;SDS_P2;PMS_P1;PMS_P2;Temp;Humidity;BMP_temperature;BMP_pressure;BME280_temperature;BME280_humidity;BME280_pressure;Samples;Min_cycle;Max_cycle;Signal;HPM_P1;HPM_P2
2023/08/24 00:01:33;;;;;;;5.63;2.33;;;21.30;99.90;;;;;;5027504;28;20103;-61
2023/08/24 00:04:00;;;;;;;7.22;2.10;;;21.20;99.90;;;;;;5027126;28;20449;-60
2023/08/24 00:06:27;;;;;;;3.67;1.73;;;21.20;99.90;;;;;;5027109;28;20058;-60
2023/08/24 00:08:54;;;;;;;4.43;1.50;;;21.10;99.90;;;;;;5024660;28;20584;-61
2023/08/24 00:11:21;;;;;;;7.72;2.70;;;21.10;99.90;;;;;;5027058;28;20052;-60
2023/08/24 00:13:51;;;;;;;7.75;2.90;;;21.10;99.90;;;;;;5027291;28;20103;-61
2023/08/24 00:16:21;;;;;;;10.10;2.78;;;21.10;99.90;;;;;;5024972;28;20103;-59
2023/08/24 00:18:48;;;;;;;5.63;2.58;;;21.10;99.90;;;;;;5024794;28;20041;-60
2023/08/24 00:21:22;;;;;;;6.93;2.28;;;21.00;99.90;;;;;;5030719;28;20045;-60
2023/08/24 00:23:52;;;;;;;6.63;2.90;;;21.00;99.90;;;;;;5030156;28;20531;-61
2023/08/24 00:26:19;;;;;;;4.97;2.60;;;20.90;99.90;;;;;;5024988;28;20072;-61
2023/08/24 00:28:46;;;;;;;6.93;2.45;;;20.80;99.90;;;;;;5025905;28;20438;-61
2023/08/24 00:31:15;;;;;;;7.13;2.33;;;20.80;99.90;;;;;;5030946;28;20489;-62
2023/08/24 00:33:42;;;;;;;8.25;2.90;;;20.80;99.90;;;;;;5030692;28;20049;-60
2023/08/24 00:36:08;;;;;;;7.15;2.38;;;20.80;99.90;;;;;;5029283;28;20056;-60
2023/08/24 00:38:36;;;;;;;4.40;2.10;;;20.70;99.90;;;;;;5027886;28;20049;-61
2023/08/24 00:41:03;;;;;;;8.90;2.45;;;20.70;99.90;;;;;;5030631;28;20049;-61
2023/08/24 00:43:30;;;;;;;4.07;2.20;;;20.70;99.90;;;;;;5015793;28;20042;-61
2023/08/24 00:46:00;;;;;;;6.20;2.08;;;20.70;99.90;;;;;;5027764;28;20528;-61
2023/08/24 00:48:29;;;;;;;5.13;2.17;;;20.70;99.90;;;;;;5012776;28;20049;-61
2023/08/24 00:50:58;;;;;;;4.55;2.20;;;20.50;99.90;;;;;;5030435;28;20064;-60
2023/08/24 00:53:26;;;;;;;4.07;2.10;;;20.30;99.90;;;;;;4996877;28;20048;-60
2023/08/24 00:55:53;;;;;;;6.68;2.70;;;20.30;99.90;;;;;;4997000;28;20041;-61
2023/08/24 00:58:20;;;;;;;6.88;2.42;;;20.30;99.90;;;;;;5027472;28;20487;-60
2023/08/24 01:00:52;;;;;;;8.02;2.80;;;20.30;99.90;;;;;;5028793;28;20045;-60
2023/08/24 01:03:19;;;;;;;5.65;2.40;;;20.30;99.90;;;;;;5012266;28;20073;-60
2023/08/24 01:05:46;;;;;;;3.00;2.13;;;20.20;99.90;;;;;;5029597;28;20119;-60
2023/08/24 01:08:13;;;;;;;6.03;2.33;;;20.30;99.90;;;;;;5030028;28;20492;-60
2023/08/24 01:10:58;;;;;;;6.38;2.50;;;20.30;99.90;;;;;;5012384;28;20046;-60
2023/08/24 01:14:14;;;;;;;5.03;2.70;;;20.30;99.90;;;;;;5030147;28;20046;-61
2023/08/24 01:16:41;;;;;;;6.63;2.50;;;20.20;99.90;;;;;;5006977;28;20053;-60
2023/08/24 01:19:13;;;;;;;5.75;2.63;;;20.20;99.90;;;;;;4996077;28;20046;-61
2023/08/24 01:21:39;;;;;;;6.13;2.30;;;20.10;99.90;;;;;;4996360;28;20046;-63
2023/08/24 01:24:12;;;;;;;7.90;2.65;;;20.00;99.90;;;;;;5012006;28;20095;-61
2023/08/24 01:26:39;;;;;;;4.18;2.40;;;20.00;99.90;;;;;;5012514;28;20056;-61
2023/08/24 01:29:07;;;;;;;7.93;2.10;;;19.90;99.90;;;;;;5011785;28;20046;-61
2023/08/24 01:31:33;;;;;;;5.35;2.17;;;19.90;99.90;;;;;;5029594;28;20053;-61
2023/08/24 01:34:01;;;;;;;4.20;2.58;;;19.90;99.90;;;;;;5012121;28;20041;-61
2023/08/24 01:36:28;;;;;;;8.70;3.10;;;19.90;99.90;;;;;;5029016;28;20047;-60
2023/08/24 01:39:25;;;;;;;5.88;2.53;;;19.80;99.90;;;;;;5011970;28;20455;-60
2023/08/24 01:41:52;;;;;;;8.45;2.50;;;19.80;99.90;;;;;;4986179;28;20045;-61
2023/08/24 01:44:20;;;;;;;8.25;3.33;;;19.70;99.90;;;;;;4995564;28;20049;-59
2023/08/24 01:46:47;;;;;;;7.03;2.92;;;19.70;99.90;;;;;;5011656;28;20114;-60
2023/08/24 01:49:15;;;;;;;7.43;3.28;;;19.60;99.90;;;;;;4995818;28;20050;-59
2023/08/24 01:51:42;;;;;;;11.15;3.70;;;19.50;99.90;;;;;;4995507;28;20045;-61
2023/08/24 01:54:09;;;;;;;7.20;3.63;;;19.50;99.90;;;;;;4995720;28;20047;-61
2023/08/24 01:56:36;;;;;;;5.97;2.67;;;19.50;99.90;;;;;;5029027;28;20119;-61
2023/08/24 01:59:03;;;;;;;6.55;2.80;;;19.40;99.90;;;;;;5029125;28;20470;-60
2023/08/24 02:01:29;;;;;;;7.40;3.13;;;19.30;99.90;;;;;;5028885;28;20095;-61
2023/08/24 02:03:56;;;;;;;7.07;2.60;;;19.30;99.90;;;;;;5028871;28;21119;-59
2023/08/24 02:06:23;;;;;;;4.80;2.60;;;19.30;99.90;;;;;;5029123;28;20545;-60
2023/08/24 02:08:50;;;;;;;6.60;2.53;;;19.30;99.90;;;;;;5029021;28;20049;-60
2023/08/24 02:11:17;;;;;;;4.93;2.25;;;19.30;99.90;;;;;;5029085;28;20048;-59
2023/08/24 02:13:43;;;;;;;6.75;2.95;;;19.30;99.90;;;;;;5029042;28;20045;-60
2023/08/24 02:16:12;;;;;;;5.70;2.45;;;19.30;99.90;;;;;;5029094;28;20049;-60
2023/08/24 02:18:38;;;;;;;8.32;2.92;;;19.30;99.90;;;;;;5028591;28;20049;-61
2023/08/24 02:21:12;;;;;;;7.43;2.95;;;19.30;99.90;;;;;;5028631;28;20060;-60
2023/08/24 02:23:39;;;;;;;;;;;19.30;99.90;;;;;;5020879;28;20536;-59
2023/08/24 02:26:06;;;;;;;4.43;2.40;;;19.30;99.90;;;;;;5028411;28;19929;-61
2023/08/24 02:28:34;;;;;;;8.32;3.30;;;19.20;99.90;;;;;;5028746;28;20130;-61
2023/08/24 02:31:02;;;;;;;5.85;2.40;;;19.20;99.90;;;;;;5028565;28;20050;-60
2023/08/24 02:33:29;;;;;;;5.45;2.92;;;19.20;99.90;;;;;;5028697;28;20099;-60
2023/08/24 02:35:56;;;;;;;5.38;2.72;;;19.20;99.90;;;;;;5011103;28;20527;-61
2023/08/24 02:38:23;;;;;;;5.30;2.97;;;19.10;99.90;;;;;;5025412;28;20103;-61
2023/08/24 02:41:00;;;;;;;11.50;2.92;;;19.00;99.90;;;;;;5028680;28;20095;-61
2023/08/24 02:43:27;;;;;;;6.65;2.92;;;19.00;99.90;;;;;;5027598;28;20041;-60
2023/08/24 02:45:55;;;;;;;4.22;2.45;;;19.00;99.90;;;;;;5028271;28;20045;-61
2023/08/24 02:48:22;;;;;;;5.68;3.33;;;19.10;99.90;;;;;;5010290;28;20150;-64
2023/08/24 02:50:49;;;;;;;7.80;3.20;;;19.10;99.90;;;;;;5027733;28;20488;-60
2023/08/24 02:53:17;;;;;;;6.40;3.28;;;19.10;99.90;;;;;;5028445;28;20042;-60
2023/08/24 02:55:43;;;;;;;7.20;4.03;;;19.10;99.90;;;;;;5032932;28;20046;-61
2023/08/24 02:58:10;;;;;;;6.43;3.00;;;19.10;99.90;;;;;;5030848;28;20050;-61
2023/08/24 03:00:40;;;;;;;5.30;2.75;;;19.20;99.90;;;;;;5028837;28;20107;-60
2023/08/24 03:03:06;;;;;;;5.47;3.10;;;19.20;99.90;;;;;;5028459;28;20087;-61
2023/08/24 03:05:33;;;;;;;9.05;3.38;;;19.20;99.90;;;;;;5009168;28;20559;-61
2023/08/24 03:08:00;;;;;;;8.90;3.20;;;19.20;99.90;;;;;;5027300;28;20047;-61
2023/08/24 03:10:27;;;;;;;5.40;2.72;;;19.20;99.90;;;;;;5028165;28;20563;-61
2023/08/24 03:12:54;;;;;;;5.63;3.22;;;19.10;99.90;;;;;;5028158;28;20041;-61
2023/08/24 03:15:21;;;;;;;7.35;2.53;;;19.10;99.90;;;;;;5019153;28;20049;-61
2023/08/24 03:17:47;;;;;;;5.40;2.85;;;19.10;99.90;;;;;;5026449;28;20083;-60
2023/08/24 03:20:15;;;;;;;5.75;2.97;;;19.20;99.90;;;;;;5026687;28;20088;-60
2023/08/24 03:22:42;;;;;;;5.40;2.65;;;19.10;99.90;;;;;;5028106;28;20042;-61
2023/08/24 03:25:09;;;;;;;7.30;2.80;;;18.90;99.90;;;;;;5027734;28;20045;-60
2023/08/24 03:27:37;;;;;;;5.75;2.90;;;18.80;99.90;;;;;;5028022;28;20107;-61
2023/08/24 03:30:05;;;;;;;7.55;2.92;;;19.00;99.90;;;;;;5027724;28;20095;-61
2023/08/24 03:32:32;;;;;;;6.28;3.13;;;19.10;99.90;;;;;;5027913;28;20115;-61
2023/08/24 03:34:59;;;;;;;8.60;3.97;;;19.20;99.90;;;;;;5027402;28;20348;-61
2023/08/24 03:37:26;;;;;;;10.25;3.95;;;19.30;99.90;;;;;;5028395;28;20364;-62
2023/08/24 03:39:53;;;;;;;7.90;3.10;;;19.40;99.90;;;;;;5027633;28;20046;-61
2023/08/24 03:42:20;;;;;;;10.65;3.83;;;19.40;99.90;;;;;;5027787;28;20177;-62
2023/08/24 03:44:46;;;;;;;9.68;4.63;;;19.40;99.90;;;;;;5027721;28;20107;-61
2023/08/24 03:47:13;;;;;;;12.43;3.65;;;19.50;99.90;;;;;;5027644;28;20056;-61
2023/08/24 03:49:43;;;;;;;6.00;3.15;;;19.50;99.90;;;;;;5027570;28;20045;-62
2023/08/24 03:52:09;;;;;;;7.40;3.55;;;19.60;99.90;;;;;;5027572;28;20053;-61
2023/08/24 03:54:39;;;;;;;8.07;4.35;;;19.60;99.90;;;;;;5027720;28;20049;-61
2023/08/24 03:57:06;;;;;;;13.55;3.60;;;19.60;99.90;;;;;;5027937;28;20054;-60
2023/08/24 03:59:33;;;;;;;5.40;2.72;;;19.60;99.90;;;;;;5022427;28;20045;-60
2023/08/24 04:02:02;;;;;;;7.47;3.15;;;19.60;99.90;;;;;;5028166;28;20057;-61
2023/08/24 04:04:30;;;;;;;5.35;3.10;;;19.60;99.90;;;;;;5029401;28;20111;-61
2023/08/24 04:06:57;;;;;;;13.18;3.90;;;19.60;99.90;;;;;;5012783;28;20401;-60
2023/08/24 04:09:24;;;;;;;5.82;2.95;;;19.60;99.90;;;;;;5029085;28;20081;-61
2023/08/24 04:11:50;;;;;;;9.73;3.33;;;19.50;99.90;;;;;;5031177;28;20044;-60
2023/08/24 04:14:17;;;;;;;12.02;3.13;;;19.60;99.90;;;;;;5031528;28;20057;-61
2023/08/24 04:16:44;;;;;;;4.60;3.10;;;19.60;99.90;;;;;;5028330;28;20092;-59
2023/08/24 04:19:11;;;;;;;10.10;4.47;;;19.70;99.90;;;;;;5024941;28;20131;-60
2023/08/24 04:21:37;;;;;;;6.05;3.33;;;19.60;99.90;;;;;;5030527;28;20053;-60
2023/08/24 04:24:04;;;;;;;7.72;2.80;;;19.60;99.90;;;;;;5031275;28;20041;-60
2023/08/24 04:26:31;;;;;;;6.72;3.60;;;19.60;99.90;;;;;;5030700;28;20481;-60
2023/08/24 04:28:58;;;;;;;9.57;3.45;;;19.60;99.90;;;;;;5030957;28;20045;-61
2023/08/24 04:31:25;;;;;;;5.55;3.40;;;19.60;99.90;;;;;;5030653;28;20095;-61
2023/08/24 04:33:52;;;;;;;11.07;3.22;;;19.60;99.90;;;;;;5031186;28;20128;-61
2023/08/24 04:36:18;;;;;;;8.10;3.63;;;19.60;99.90;;;;;;5030332;28;20049;-60
2023/08/24 04:38:45;;;;;;;10.75;3.47;;;19.50;99.90;;;;;;5030688;28;20100;-60
2023/08/24 04:41:15;;;;;;;9.70;3.45;;;19.50;99.90;;;;;;5020094;28;20049;-61
2023/08/24 04:43:42;;;;;;;9.10;3.72;;;19.30;99.90;;;;;;5030841;28;20116;-60
2023/08/24 04:46:09;;;;;;;6.45;3.92;;;19.20;99.90;;;;;;5030464;28;20095;-60
2023/08/24 04:48:35;;;;;;;13.50;3.72;;;19.20;99.90;;;;;;5030397;28;20288;-61
2023/08/24 04:51:02;;;;;;;8.00;3.13;;;19.30;99.90;;;;;;5030167;28;20487;-61
2023/08/24 04:53:29;;;;;;;11.60;3.33;;;19.40;99.90;;;;;;5030090;28;20045;-59
2023/08/24 04:55:56;;;;;;;15.27;3.47;;;19.50;99.90;;;;;;5030417;28;20045;-60
2023/08/24 04:58:23;;;;;;;10.73;4.55;;;19.60;99.90;;;;;;5030491;28;20077;-61
2023/08/24 05:00:50;;;;;;;9.55;4.38;;;19.50;99.90;;;;;;5030698;28;20052;-61
2023/08/24 05:03:17;;;;;;;8.30;3.40;;;19.40;99.90;;;;;;5029982;28;20069;-61
2023/08/24 05:05:44;;;;;;;7.70;3.50;;;19.20;99.90;;;;;;5030164;28;20093;-61
2023/08/24 05:08:11;;;;;;;6.90;3.38;;;19.10;99.90;;;;;;5029833;28;20042;-61
2023/08/24 05:10:39;;;;;;;9.63;3.45;;;19.20;99.90;;;;;;5030354;28;20049;-61
2023/08/24 05:13:06;;;;;;;11.27;3.20;;;19.40;99.90;;;;;;5012402;28;20053;-61
2023/08/24 05:15:33;;;;;;;10.38;3.65;;;19.40;99.90;;;;;;5029503;28;20041;-61
2023/08/24 05:17:59;;;;;;;15.45;4.50;;;19.50;99.90;;;;;;5029993;28;20052;-61
2023/08/24 05:20:27;;;;;;;6.07;3.45;;;19.40;99.90;;;;;;5029918;28;20153;-61
2023/08/24 05:22:56;;;;;;;11.63;3.88;;;19.30;99.90;;;;;;5029812;28;20045;-61
2023/08/24 05:25:23;;;;;;;12.45;4.28;;;19.20;99.90;;;;;;5030110;28;20072;-61
2023/08/24 05:27:50;;;;;;;10.85;4.72;;;19.10;99.90;;;;;;5030094;28;20049;-62
2023/08/24 05:30:17;;;;;;;10.90;4.40;;;19.20;99.90;;;;;;5031984;28;20076;-61
2023/08/24 05:32:44;;;;;;;17.25;4.78;;;19.20;99.90;;;;;;5033840;28;20076;-61
2023/08/24 05:35:11;;;;;;;8.80;4.03;;;19.20;99.90;;;;;;5033174;28;20516;-61
2023/08/24 05:37:38;;;;;;;11.07;4.32;;;19.20;99.90;;;;;;5029193;28;20042;-61
2023/08/24 05:40:05;;;;;;;10.60;4.88;;;19.20;99.90;;;;;;5029122;28;20041;-61
2023/08/24 05:42:32;;;;;;;8.90;4.55;;;19.30;99.90;;;;;;5028186;28;20061;-62
2023/08/24 05:44:59;;;;;;;12.18;4.80;;;19.20;99.90;;;;;;5029337;28;20045;-61
2023/08/24 05:47:25;;;;;;;10.98;4.82;;;19.10;99.90;;;;;;5028174;28;20076;-62
2023/08/24 05:49:52;;;;;;;14.07;5.05;;;19.00;99.90;;;;;;5028946;28;20037;-62
2023/08/24 05:52:19;;;;;;;13.68;5.00;;;19.00;99.90;;;;;;5010823;28;20555;-62
2023/08/24 05:54:46;;;;;;;8.05;4.82;;;19.10;99.90;;;;;;5028346;28;20049;-62
2023/08/24 05:57:13;;;;;;;12.25;4.60;;;19.10;99.90;;;;;;5029341;28;20052;-62
2023/08/24 05:59:40;;;;;;;8.60;3.90;;;19.10;99.90;;;;;;5028769;28;20052;-62
2023/08/24 06:02:06;;;;;;;16.95;4.35;;;19.20;99.90;;;;;;5029291;28;20469;-62
2023/08/24 06:04:33;;;;;;;8.68;4.43;;;19.20;99.90;;;;;;5028753;28;20100;-61
2023/08/24 06:07:00;;;;;;;8.75;4.13;;;19.10;99.90;;;;;;5028903;28;20061;-62
2023/08/24 06:09:26;;;;;;;13.60;4.63;;;19.10;99.90;;;;;;5028922;28;20061;-62
2023/08/24 06:11:53;;;;;;;8.82;4.43;;;19.10;99.90;;;;;;5029000;28;20072;-64
2023/08/24 06:14:20;;;;;;;9.30;4.90;;;19.10;99.90;;;;;;5028511;28;20038;-62
2023/08/24 06:16:48;;;;;;;9.02;5.13;;;19.00;99.90;;;;;;5028740;28;20370;-62
2023/08/24 06:19:15;;;;;;;5.57;4.43;;;19.00;99.90;;;;;;5026516;28;20436;-62
2023/08/24 06:21:42;;;;;;;16.17;5.50;;;18.90;99.90;;;;;;5029462;28;20045;-61
2023/08/24 06:24:09;;;;;;;7.28;4.60;;;18.90;99.90;;;;;;5028844;28;20132;-60
2023/08/24 06:26:36;;;;;;;14.88;4.70;;;19.00;99.90;;;;;;5010111;28;20045;-61
2023/08/24 06:29:03;;;;;;;7.00;4.30;;;19.10;99.90;;;;;;5025776;28;20586;-61
2023/08/24 06:31:31;;;;;;;9.23;4.28;;;19.10;99.90;;;;;;5028662;28;20076;-61
2023/08/24 06:33:58;;;;;;;11.48;4.82;;;19.10;99.90;;;;;;5028142;28;20563;-61
2023/08/24 06:36:25;;;;;;;8.48;3.88;;;19.20;99.90;;;;;;5028328;28;20049;-61
2023/08/24 06:38:51;;;;;;;8.52;4.47;;;19.10;99.90;;;;;;5028817;28;20038;-61
2023/08/24 06:41:19;;;;;;;8.88;4.38;;;19.20;99.90;;;;;;5020852;28;20049;-61
2023/08/24 06:43:46;;;;;;;8.02;4.43;;;19.20;99.90;;;;;;5028792;28;20037;-61
2023/08/24 06:46:13;;;;;;;7.72;4.50;;;19.20;99.90;;;;;;5027783;28;20050;-62
2023/08/24 06:48:43;;;;;;;14.00;5.35;;;19.30;99.90;;;;;;5010018;28;20076;-61
2023/08/24 06:51:10;;;;;;;11.55;5.07;;;19.30;99.90;;;;;;5027710;28;20585;-61
2023/08/24 06:53:36;;;;;;;10.35;4.65;;;19.30;99.90;;;;;;5028243;28;20049;-61
2023/08/24 06:56:03;;;;;;;15.05;4.60;;;19.30;99.90;;;;;;5027962;28;20033;-61
2023/08/24 06:58:30;;;;;;;8.57;4.25;;;19.30;99.90;;;;;;5028182;28;20045;-62
2023/08/24 07:00:57;;;;;;;11.57;4.57;;;19.30;99.90;;;;;;5027994;28;20045;-62
2023/08/24 07:03:24;;;;;;;9.55;5.40;;;19.40;99.90;;;;;;5017838;28;20050;-63
2023/08/24 07:05:51;;;;;;;7.80;3.88;;;19.30;99.90;;;;;;5027558;28;20467;-62
2023/08/24 07:08:18;;;;;;;13.73;5.90;;;19.30;99.90;;;;;;4993821;28;20054;-63
2023/08/24 07:10:44;;;;;;;9.13;4.75;;;19.20;99.90;;;;;;5010244;28;20041;-61
2023/08/24 07:13:11;;;;;;;10.18;5.25;;;19.10;99.90;;;;;;5028089;28;20095;-61
2023/08/24 07:15:38;;;;;;;10.57;4.90;;;19.00;99.90;;;;;;5027894;28;20088;-61
2023/08/24 07:18:05;;;;;;;13.05;5.63;;;19.10;99.90;;;;;;5027779;28;20079;-61
2023/08/24 07:20:33;;;;;;;9.73;5.53;;;19.10;99.90;;;;;;5027607;28;20527;-61
2023/08/24 07:22:59;;;;;;;13.45;5.43;;;19.20;99.90;;;;;;5027852;28;20041;-61
2023/08/24 07:25:27;;;;;;;12.27;5.43;;;19.10;99.90;;;;;;5016508;28;20050;-62
2023/08/24 07:27:58;;;;;;;14.07;5.53;;;19.10;99.90;;;;;;5010291;28;20049;-61
2023/08/24 07:30:27;;;;;;;12.02;4.50;;;19.10;99.90;;;;;;5028172;28;20054;-61
2023/08/24 07:33:01;;;;;;;14.10;6.72;;;19.20;99.90;;;;;;5027296;28;20053;-62
2023/08/24 07:35:28;;;;;;;12.88;5.65;;;19.20;99.90;;;;;;5027785;28;20150;-62
2023/08/24 07:37:55;;;;;;;11.35;5.30;;;19.20;99.90;;;;;;5029597;28;20053;-62
2023/08/24 07:40:23;;;;;;;11.25;5.25;;;19.20;99.90;;;;;;5018997;28;20443;-61
2023/08/24 07:42:52;;;;;;;11.13;5.75;;;19.30;99.90;;;;;;5014359;28;20041;-62
2023/08/24 07:45:20;;;;;;;10.85;5.32;;;19.30;99.90;;;;;;5031442;28;20128;-63
2023/08/24 07:47:47;;;;;;;16.70;5.63;;;19.40;99.90;;;;;;5031101;28;20439;-62
2023/08/24 07:50:13;;;;;;;9.57;5.57;;;19.40;99.90;;;;;;5031293;28;20041;-63
2023/08/24 07:52:40;;;;;;;15.10;5.65;;;19.30;99.90;;;;;;5031414;28;20053;-62
2023/08/24 07:55:08;;;;;;;10.13;5.80;;;19.20;99.90;;;;;;5031479;28;20057;-62
2023/08/24 07:57:35;;;;;;;21.75;6.75;;;19.20;99.90;;;;;;5014014;28;20049;-63
2023/08/24 08:00:04;;;;;;;11.07;5.60;;;19.30;99.90;;;;;;5029551;28;20041;-62
2023/08/24 08:02:37;;;;;;;14.80;6.47;;;19.30;99.90;;;;;;5028223;28;20433;-61
2023/08/24 08:05:04;;;;;;;11.00;5.88;;;19.50;99.90;;;;;;5031726;28;20056;-62
2023/08/24 08:07:31;;;;;;;12.85;6.53;;;19.60;99.90;;;;;;5034071;28;20071;-61
2023/08/24 08:09:58;;;;;;;11.00;5.57;;;19.60;99.90;;;;;;5035078;28;20294;-62
2023/08/24 08:12:25;;;;;;;18.77;6.63;;;19.70;99.90;;;;;;5031704;28;20107;-62
2023/08/24 08:14:51;;;;;;;14.65;6.03;;;19.70;99.90;;;;;;5018398;28;20429;-62
2023/08/24 08:17:18;;;;;;;11.63;5.65;;;19.80;99.90;;;;;;5031778;28;20053;-62
2023/08/24 08:19:45;;;;;;;23.60;6.78;;;19.80;99.90;;;;;;5030776;28;20117;-61
2023/08/24 08:22:12;;;;;;;17.63;6.57;;;19.90;99.90;;;;;;5031857;28;20046;-61
2023/08/24 08:24:39;;;;;;;14.20;6.20;;;20.00;99.90;;;;;;5030762;28;20053;-62
2023/08/24 08:27:06;;;;;;;13.77;6.15;;;20.00;99.90;;;;;;5031045;28;20168;-61
2023/08/24 08:29:33;;;;;;;16.17;5.90;;;20.00;99.90;;;;;;5030591;28;20099;-62
2023/08/24 08:31:59;;;;;;;12.23;7.70;;;20.20;99.90;;;;;;5013266;28;20041;-62
2023/08/24 08:34:26;;;;;;;14.40;5.93;;;20.20;99.90;;;;;;5031027;28;20049;-61
2023/08/24 08:36:53;;;;;;;17.67;7.15;;;20.10;99.90;;;;;;5022399;28;20436;-62
2023/08/24 08:39:20;;;;;;;13.88;6.85;;;20.10;99.90;;;;;;5029786;28;20467;-62
2023/08/24 08:41:50;;;;;;;17.98;6.68;;;20.20;99.90;;;;;;5030618;28;20057;-62
2023/08/24 08:44:17;;;;;;;14.52;6.13;;;20.20;99.90;;;;;;5030552;28;20103;-61
2023/08/24 08:46:44;;;;;;;12.75;6.63;;;20.20;99.90;;;;;;4997218;28;20136;-61
2023/08/24 08:49:12;;;;;;;13.25;6.10;;;20.20;99.90;;;;;;5011754;28;20049;-62
2023/08/24 08:51:38;;;;;;;11.27;5.88;;;20.40;99.90;;;;;;5013840;28;20099;-63
2023/08/24 08:54:05;;;;;;;13.43;7.07;;;20.50;99.90;;;;;;5013065;28;20053;-62
2023/08/24 08:56:32;;;;;;;17.63;6.45;;;20.50;99.90;;;;;;5014033;28;20115;-61
2023/08/24 08:59:00;;;;;;;16.35;8.00;;;20.60;99.90;;;;;;5030874;28;20042;-61
2023/08/24 09:01:27;;;;;;;15.32;6.72;;;20.80;99.90;;;;;;5009352;28;20107;-63
2023/08/24 09:03:54;;;;;;;10.75;5.97;;;20.90;99.90;;;;;;5027804;28;20045;-62
2023/08/24 09:06:22;;;;;;;15.60;6.90;;;21.00;99.90;;;;;;5030869;28;20049;-62
2023/08/24 09:08:50;;;;;;;12.32;6.13;;;21.20;99.90;;;;;;5028913;28;20041;-63
2023/08/24 09:11:18;;;;;;;15.95;6.57;;;21.20;99.90;;;;;;5030997;28;20049;-63
2023/08/24 09:13:45;;;;;;;12.38;6.28;;;21.20;99.90;;;;;;5031101;28;20053;-62
2023/08/24 09:16:15;;;;;;;15.20;8.52;;;21.20;99.90;;;;;;5032782;28;20053;-62
2023/08/24 09:18:46;;;;;;;22.35;15.50;;;21.20;99.90;;;;;;5034169;28;20294;-62
2023/08/24 09:21:14;;;;;;;28.83;18.60;;;21.00;99.90;;;;;;5032012;28;20045;-62
2023/08/24 09:23:59;;;;;;;15.90;8.35;;;21.00;99.90;;;;;;5033466;28;20050;-60
2023/08/24 09:26:34;;;;;;;21.95;8.00;;;20.80;99.90;;;;;;5015634;28;20562;-61
2023/08/24 09:29:11;;;;;;;16.95;7.60;;;20.80;99.90;;;;;;5030040;28;20165;-61
2023/08/24 09:31:38;;;;;;;13.20;6.57;;;20.70;99.90;;;;;;5013131;28;20049;-62
2023/08/24 09:34:06;;;;;;;13.27;6.40;;;20.60;99.90;;;;;;5029549;28;20107;-62
2023/08/24 09:36:36;;;;;;;10.38;7.93;;;20.50;99.90;;;;;;5029512;28;20077;-62
2023/08/24 09:39:04;;;;;;;22.40;8.73;;;20.50;99.90;;;;;;5026601;28;20096;-62
2023/08/24 09:41:43;;;;;;;17.20;7.93;;;20.50;99.90;;;;;;5029499;28;20053;-63
2023/08/24 09:44:10;;;;;;;13.77;7.60;;;20.50;99.90;;;;;;5029247;28;20088;-63
2023/08/24 09:46:38;;;;;;;26.63;9.07;;;20.50;99.90;;;;;;5029125;28;20096;-63
2023/08/24 09:49:05;;;;;;;17.65;8.48;;;20.60;99.90;;;;;;5011258;28;20103;-63
2023/08/24 09:51:33;;;;;;;21.95;8.23;;;20.70;99.90;;;;;;5011762;28;20103;-63
2023/08/24 09:54:10;;;;;;;16.77;6.53;;;20.90;99.90;;;;;;5018021;28;20085;-63
2023/08/24 09:56:41;;;;;;;15.00;6.15;;;21.20;99.90;;;;;;5012787;28;20088;-63
2023/08/24 09:59:18;;;;;;;16.02;6.32;;;21.40;99.90;;;;;;5028777;28;20428;-62
2023/08/24 10:01:48;;;;;;;9.88;7.10;;;21.60;99.90;;;;;;5028650;28;20520;-62
2023/08/24 10:04:23;;;;;;;14.90;7.72;;;21.60;99.90;;;;;;5028632;28;20069;-62
2023/08/24 10:06:52;;;;;;;15.00;7.57;;;21.50;99.90;;;;;;5028617;28;20057;-63
2023/08/24 10:09:22;;;;;;;16.25;6.53;;;21.70;99.90;;;;;;5010992;28;20100;-63
2023/08/24 10:11:58;;;;;;;21.10;6.53;;;21.90;99.90;;;;;;5010492;28;20041;-62
2023/08/24 10:14:35;;;;;;;16.85;6.10;;;22.00;99.90;;;;;;5003635;28;20424;-63
2023/08/24 10:17:02;;;;;;;16.45;7.20;;;22.20;99.90;;;;;;5011282;28;20051;-63
2023/08/24 10:19:29;;;;;;;15.38;7.40;;;22.30;99.90;;;;;;5010886;28;20041;-63
2023/08/24 10:21:57;;;;;;;16.70;8.02;;;22.30;99.90;;;;;;4994910;28;20096;-62
2023/08/24 10:24:24;;;;;;;21.05;7.53;;;22.40;99.90;;;;;;5011350;28;20117;-63
2023/08/24 10:26:50;;;;;;;14.20;6.90;;;22.40;99.90;;;;;;5010976;28;20049;-62
2023/08/24 10:29:17;;;;;;;16.02;7.65;;;22.40;99.90;;;;;;5010894;28;20052;-63
2023/08/24 10:31:44;;;;;;;14.82;8.50;;;22.40;99.90;;;;;;4995041;28;20085;-63
2023/08/24 10:34:11;;;;;;;17.02;8.10;;;22.40;99.90;;;;;;5010113;28;20045;-63
2023/08/24 10:36:41;;;;;;;14.40;7.82;;;22.50;99.90;;;;;;4994904;28;20123;-62
2023/08/24 10:39:08;;;;;;;18.88;7.53;;;22.50;99.90;;;;;;5028380;28;20057;-62
2023/08/24 10:41:50;;;;;;;18.08;7.13;;;22.60;99.90;;;;;;5011308;28;20095;-61
2023/08/24 10:44:37;;;;;;;13.07;7.10;;;22.70;99.90;;;;;;5028711;28;20049;-62
2023/08/24 10:47:14;;;;;;;11.35;7.47;;;22.70;99.90;;;;;;5032438;28;20045;-62
2023/08/24 10:49:56;;;;;;;13.93;6.80;;;22.80;99.90;;;;;;5028817;28;20053;-62
2023/08/24 10:52:33;;;;;;;14.95;6.60;;;23.00;99.90;;;;;;5018215;28;20492;-63
2023/08/24 10:55:03;;;;;;;18.98;6.00;;;23.30;99.90;;;;;;5025145;28;20044;-63
2023/08/24 10:57:43;;;;;;;8.68;5.30;;;23.50;99.90;;;;;;5024510;28;20057;-62
2023/08/24 11:00:13;;;;;;;7.80;4.63;;;23.60;99.90;;;;;;5025079;28;20508;-63
2023/08/24 11:02:47;;;;;;;17.35;4.85;;;23.70;99.90;;;;;;5028354;28;20306;-62
2023/08/24 11:05:27;;;;;;;14.57;6.32;;;23.70;99.90;;;;;;5024856;28;20111;-64
2023/08/24 11:08:03;;;;;;;12.73;5.07;;;23.60;99.90;;;;;;5027045;28;20049;-63
2023/08/24 11:10:46;;;;;;;9.18;4.93;;;23.50;99.90;;;;;;5027477;28;20045;-63
2023/08/24 11:13:14;;;;;;;11.05;4.63;;;23.50;99.90;;;;;;5001160;28;20049;-63
2023/08/24 11:15:45;;;;;;;18.25;4.95;;;23.60;99.90;;;;;;5009846;28;20037;-63
2023/08/24 11:18:18;;;;;;;11.73;4.80;;;23.60;99.90;;;;;;5000104;28;20315;-63
2023/08/24 11:20:48;;;;;;;9.70;4.13;;;23.80;99.90;;;;;;5027358;28;20073;-63
2023/08/24 11:23:15;;;;;;;8.77;3.90;;;23.90;99.90;;;;;;5028043;28;20041;-63
2023/08/24 11:25:42;;;;;;;8.40;4.35;;;24.00;99.90;;;;;;5027292;28;20045;-63
2023/08/24 11:28:09;;;;;;;10.93;4.43;;;24.10;99.90;;;;;;5027809;28;20049;-63
2023/08/24 11:30:36;;;;;;;7.28;3.47;;;24.20;99.90;;;;;;5027561;28;20046;-63
2023/08/24 11:33:03;;;;;;;6.68;3.58;;;24.20;99.90;;;;;;5027819;28;20072;-63
2023/08/24 11:35:34;;;;;;;5.97;3.47;;;24.40;99.90;;;;;;5027339;28;20103;-63
2023/08/24 11:38:02;;;;;;;10.70;3.75;;;24.50;99.90;;;;;;5010509;28;20049;-64
2023/08/24 11:40:28;;;;;;;7.45;3.92;;;24.60;99.90;;;;;;5027332;28;20501;-63
2023/08/24 11:42:56;;;;;;;11.63;4.25;;;24.70;99.90;;;;;;5018609;28;20103;-63
2023/08/24 11:45:23;;;;;;;4.38;2.22;;;24.80;99.90;;;;;;5027709;28;20045;-63
2023/08/24 11:47:53;;;;;;;8.93;3.10;;;24.80;99.90;;;;;;5009805;28;20049;-63
2023/08/24 11:50:20;;;;;;;8.18;2.90;;;24.90;99.90;;;;;;5009649;28;20103;-64
2023/08/24 11:52:47;;;;;;;7.32;3.10;;;25.00;99.90;;;;;;5027219;28;20049;-64
2023/08/24 11:55:14;;;;;;;9.70;2.70;;;24.90;99.90;;;;;;5027385;28;20050;-64
2023/08/24 11:57:42;;;;;;;7.72;2.97;;;24.90;99.90;;;;;;5027534;28;20038;-64
2023/08/24 12:00:13;;;;;;;8.45;2.92;;;24.70;99.90;;;;;;5027539;28;20081;-64
2023/08/24 12:02:41;;;;;;;10.73;3.28;;;24.60;99.90;;;;;;4995060;28;20086;-64
2023/08/24 12:05:08;;;;;;;6.88;3.13;;;24.50;99.90;;;;;;5009555;28;20112;-63
2023/08/24 12:07:35;;;;;;;7.28;3.22;;;24.50;99.90;;;;;;5009468;28;20045;-64
2023/08/24 12:10:02;;;;;;;11.27;3.15;;;24.60;99.90;;;;;;5024951;28;20053;-64
2023/08/24 12:12:28;;;;;;;7.82;3.05;;;24.60;99.90;;;;;;5027437;28;20551;-64
2023/08/24 12:14:57;;;;;;;8.88;3.20;;;24.60;99.90;;;;;;5025157;28;20488;-64
2023/08/24 12:17:24;;;;;;;9.40;2.67;;;24.60;99.90;;;;;;5027043;28;20049;-64
2023/08/24 12:19:57;;;;;;;4.95;3.33;;;24.60;99.90;;;;;;5025533;28;20045;-64
2023/08/24 12:22:24;;;;;;;11.88;3.60;;;24.60;99.90;;;;;;5027270;28;20442;-64
2023/08/24 12:24:51;;;;;;;5.20;2.70;;;24.60;99.90;;;;;;5030319;28;20045;-64
2023/08/24 12:27:22;;;;;;;6.60;2.95;;;24.60;99.90;;;;;;5030866;28;20187;-64
2023/08/24 12:29:49;;;;;;;8.75;2.92;;;24.50;99.90;;;;;;5028154;28;20045;-64
2023/08/24 12:32:19;;;;;;;7.65;3.28;;;24.40;99.90;;;;;;5030536;28;20061;-64
2023/08/24 12:34:46;;;;;;;6.05;3.05;;;24.40;99.90;;;;;;5030503;28;20050;-63
2023/08/24 12:37:13;;;;;;;9.35;3.45;;;24.40;99.90;;;;;;5030677;28;20049;-64
2023/08/24 12:39:40;;;;;;;5.47;3.28;;;24.60;99.90;;;;;;5028309;28;20099;-64
2023/08/24 12:42:07;;;;;;;8.32;3.63;;;24.60;99.90;;;;;;5026969;28;20054;-67
2023/08/24 12:44:34;;;;;;;6.38;2.88;;;24.50;99.90;;;;;;5030657;28;20049;-64
2023/08/24 12:47:00;;;;;;;9.63;2.75;;;24.40;99.90;;;;;;5030148;28;20444;-64
2023/08/24 12:49:27;;;;;;;7.28;2.63;;;24.30;99.90;;;;;;5027400;28;20094;-64